sensor_id;sensor_type;location;lat;lon;timestamp;pressure;altitude;pressure_sealevel;temperature;humidity
46456;BME280;64052;47.466;9.094;2022-12-07T00:01:56;95678.94;;;3.60;73.57
46456;BME280;64052;47.466;9.094;2022-12-07T00:06:57;95680.88;;;3.57;73.46
46456;BME280;64052;47.466;9.094;2022-12-07T00:11:59;95677.53;;;3.55;73.58
46456;BME280;64052;47.466;9.094;2022-12-07T00:17:00;95674.28;;;3.51;73.87
46456;BME280;64052;47.466;9.094;2022-12-07T00:22:02;95667.84;;;3.57;73.60
46456;BME280;64052;47.466;9.094;2022-12-07T00:27:03;95673.25;;;3.54;73.34
46456;BME280;64052;47.466;9.094;2022-12-07T00:32:05;95669.16;;;3.49;73.44
46456;BME280;64052;47.466;9.094;2022-12-07T00:37:06;95666.09;;;3.43;73.82
46456;BME280;64052;47.466;9.094;2022-12-07T00:42:08;95668.78;;;3.41;73.96
46456;BME280;64052;47.466;9.094;2022-12-07T00:47:09;95664.91;;;3.48;74.05
46456;BME280;64052;47.466;9.094;2022-12-07T00:52:11;95668.16;;;3.52;74.18
46456;BME280;64052;47.466;9.094;2022-12-07T00:57:12;95666.91;;;3.58;73.75
46456;BME280;64052;47.466;9.094;2022-12-07T01:02:14;95654.19;;;3.68;73.40
46456;BME280;64052;47.466;9.094;2022-12-07T01:07:15;95662.84;;;3.68;73.34
46456;BME280;64052;47.466;9.094;2022-12-07T01:12:16;95660.69;;;3.75;73.55
46456;BME280;64052;47.466;9.094;2022-12-07T01:17:18;95671.69;;;3.65;73.16
46456;BME280;64052;47.466;9.094;2022-12-07T01:22:19;95668.78;;;3.56;73.45
46456;BME280;64052;47.466;9.094;2022-12-07T01:27:21;95661.44;;;3.48;73.47
46456;BME280;64052;47.466;9.094;2022-12-07T01:32:22;95666.66;;;3.48;73.67
46456;BME280;64052;47.466;9.094;2022-12-07T01:37:24;95675.13;;;3.51;73.54
46456;BME280;64052;47.466;9.094;2022-12-07T01:42:26;95675.50;;;3.60;73.73
46456;BME280;64052;47.466;9.094;2022-12-07T01:47:28;95673.66;;;3.62;73.19
46456;BME280;64052;47.466;9.094;2022-12-07T01:52:31;95666.38;;;3.67;73.38
46456;BME280;64052;47.466;9.094;2022-12-07T01:57:38;95667.03;;;3.71;73.34
46456;BME280;64052;47.466;9.094;2022-12-07T02:02:47;95667.88;;;3.71;73.13
46456;BME280;64052;47.466;9.094;2022-12-07T02:07:51;95665.28;;;3.71;72.49
46456;BME280;64052;47.466;9.094;2022-12-07T02:12:58;95660.16;;;3.70;73.15
46456;BME280;64052;47.466;9.094;2022-12-07T02:18:07;95655.94;;;3.67;72.86
46456;BME280;64052;47.466;9.094;2022-12-07T02:23:39;95650.91;;;3.64;73.10
46456;BME280;64052;47.466;9.094;2022-12-07T02:34:14;95646.72;;;3.61;72.75
46456;BME280;64052;47.466;9.094;2022-12-07T02:39:40;95654.06;;;3.69;72.71
46456;BME280;64052;47.466;9.094;2022-12-07T02:44:44;95652.59;;;3.65;72.80
46456;BME280;64052;47.466;9.094;2022-12-07T02:49:49;95652.50;;;3.67;72.62
46456;BME280;64052;47.466;9.094;2022-12-07T02:54:50;95649.25;;;3.63;72.13
46456;BME280;64052;47.466;9.094;2022-12-07T03:00:03;95650.06;;;3.63;72.51
46456;BME280;64052;47.466;9.094;2022-12-07T03:05:20;95653.88;;;3.58;72.62
46456;BME280;64052;47.466;9.094;2022-12-07T03:15:48;95644.78;;;3.50;73.11
46456;BME280;64052;47.466;9.094;2022-12-07T03:20:53;95639.56;;;3.50;72.96
46456;BME280;64052;47.466;9.094;2022-12-07T03:25:58;95635.38;;;3.62;72.75
46456;BME280;64052;47.466;9.094;2022-12-07T03:31:13;95631.00;;;3.63;72.29
46456;BME280;64052;47.466;9.094;2022-12-07T03:36:29;95634.34;;;3.65;72.49
46456;BME280;64052;47.466;9.094;2022-12-07T03:41:34;95644.97;;;3.62;73.16
46456;BME280;64052;47.466;9.094;2022-12-07T03:47:11;95640.38;;;3.51;73.38
46456;BME280;64052;47.466;9.094;2022-12-07T03:52:25;95636.78;;;3.54;73.40
46456;BME280;64052;47.466;9.094;2022-12-07T03:57:30;95641.97;;;3.54;73.14
46456;BME280;64052;47.466;9.094;2022-12-07T04:02:34;95639.38;;;3.54;73.20
46456;BME280;64052;47.466;9.094;2022-12-07T04:07:36;95644.59;;;3.54;73.22
46456;BME280;64052;47.466;9.094;2022-12-07T04:12:38;95647.00;;;3.57;73.40
46456;BME280;64052;47.466;9.094;2022-12-07T04:17:40;95638.34;;;3.56;73.00
46456;BME280;64052;47.466;9.094;2022-12-07T04:22:42;95635.56;;;3.59;72.98
46456;BME280;64052;47.466;9.094;2022-12-07T04:27:43;95639.75;;;3.62;72.87
46456;BME280;64052;47.466;9.094;2022-12-07T04:32:44;95633.97;;;3.57;73.04
46456;BME280;64052;47.466;9.094;2022-12-07T04:37:46;95635.63;;;3.58;73.12
46456;BME280;64052;47.466;9.094;2022-12-07T04:42:47;95635.63;;;3.58;73.36
46456;BME280;64052;47.466;9.094;2022-12-07T04:47:49;95635.84;;;3.55;73.79
46456;BME280;64052;47.466;9.094;2022-12-07T04:52:50;95637.63;;;3.54;73.86
46456;BME280;64052;47.466;9.094;2022-12-07T04:57:52;95641.25;;;3.51;74.69
46456;BME280;64052;47.466;9.094;2022-12-07T05:02:53;95649.59;;;3.57;74.65
46456;BME280;64052;47.466;9.094;2022-12-07T05:07:55;95648.25;;;3.65;74.77
46456;BME280;64052;47.466;9.094;2022-12-07T05:12:57;95649.72;;;3.70;74.91
46456;BME280;64052;47.466;9.094;2022-12-07T05:17:58;95645.50;;;3.67;74.87
46456;BME280;64052;47.466;9.094;2022-12-07T05:22:59;95645.16;;;3.59;75.42
46456;BME280;64052;47.466;9.094;2022-12-07T05:28:01;95640.84;;;3.58;75.42
46456;BME280;64052;47.466;9.094;2022-12-07T05:33:03;95647.59;;;3.47;75.98
46456;BME280;64052;47.466;9.094;2022-12-07T05:38:04;95641.59;;;3.31;76.76
46456;BME280;64052;47.466;9.094;2022-12-07T05:43:06;95645.50;;;3.38;76.83
46456;BME280;64052;47.466;9.094;2022-12-07T05:48:07;95646.63;;;3.34;76.94
46456;BME280;64052;47.466;9.094;2022-12-07T05:53:09;95646.91;;;3.29;77.79
46456;BME280;64052;47.466;9.094;2022-12-07T05:58:10;95648.47;;;3.32;77.40
46456;BME280;64052;47.466;9.094;2022-12-07T06:08:19;95656.94;;;3.35;77.18
46456;BME280;64052;47.466;9.094;2022-12-07T06:13:21;95663.69;;;3.40;77.84
46456;BME280;64052;47.466;9.094;2022-12-07T06:18:23;95659.09;;;3.43;77.51
46456;BME280;64052;47.466;9.094;2022-12-07T06:23:24;95666.38;;;3.53;77.70
46456;BME280;64052;47.466;9.094;2022-12-07T06:28:26;95657.63;;;3.54;77.52
46456;BME280;64052;47.466;9.094;2022-12-07T06:33:28;95665.06;;;3.45;77.66
46456;BME280;64052;47.466;9.094;2022-12-07T06:38:30;95667.50;;;3.48;77.84
46456;BME280;64052;47.466;9.094;2022-12-07T06:43:32;95667.50;;;3.48;78.05
46456;BME280;64052;47.466;9.094;2022-12-07T06:48:33;95666.38;;;3.53;77.89
46456;BME280;64052;47.466;9.094;2022-12-07T06:53:35;95662.75;;;3.55;78.06
46456;BME280;64052;47.466;9.094;2022-12-07T06:58:37;95673.19;;;3.55;77.35
46456;BME280;64052;47.466;9.094;2022-12-07T07:03:39;95667.31;;;3.51;77.23
46456;BME280;64052;47.466;9.094;2022-12-07T07:08:41;95666.66;;;3.48;77.89
46456;BME280;64052;47.466;9.094;2022-12-07T07:13:44;95664.16;;;3.46;77.93
46456;BME280;64052;47.466;9.094;2022-12-07T07:18:45;95656.41;;;3.59;78.11
46456;BME280;64052;47.466;9.094;2022-12-07T07:23:47;95665.09;;;3.60;78.01
46456;BME280;64052;47.466;9.094;2022-12-07T07:28:49;95664.63;;;3.68;78.10
46456;BME280;64052;47.466;9.094;2022-12-07T07:33:50;95668.44;;;3.76;78.08
46456;BME280;64052;47.466;9.094;2022-12-07T07:38:52;95670.19;;;3.76;77.25
46456;BME280;64052;47.466;9.094;2022-12-07T07:43:54;95685.00;;;3.75;77.14
46456;BME280;64052;47.466;9.094;2022-12-07T07:48:55;95683.16;;;3.77;77.34
46456;BME280;64052;47.466;9.094;2022-12-07T07:53:57;95683.06;;;3.79;77.47
46456;BME280;64052;47.466;9.094;2022-12-07T07:58:58;95683.88;;;3.79;77.25
46456;BME280;64052;47.466;9.094;2022-12-07T08:04:00;95674.78;;;3.72;76.79
46456;BME280;64052;47.466;9.094;2022-12-07T08:09:02;95682.31;;;3.77;77.05
46456;BME280;64052;47.466;9.094;2022-12-07T08:14:04;95693.09;;;3.71;77.72
46456;BME280;64052;47.466;9.094;2022-12-07T08:19:06;95687.69;;;3.74;77.29
46456;BME280;64052;47.466;9.094;2022-12-07T08:24:07;95690.41;;;3.72;77.11
46456;BME280;64052;47.466;9.094;2022-12-07T08:29:09;95689.47;;;3.73;77.40
46456;BME280;64052;47.466;9.094;2022-12-07T08:34:11;95692.56;;;3.80;77.46
46456;BME280;64052;47.466;9.094;2022-12-07T08:39:13;95689.09;;;3.79;77.25
46456;BME280;64052;47.466;9.094;2022-12-07T08:44:33;95695.91;;;3.82;77.54
46456;BME280;64052;47.466;9.094;2022-12-07T08:49:43;95693.84;;;3.87;77.28
46456;BME280;64052;47.466;9.094;2022-12-07T08:54:48;95691.22;;;3.87;77.06
46456;BME280;64052;47.466;9.094;2022-12-07T08:59:50;95690.97;;;3.92;77.02
46456;BME280;64052;47.466;9.094;2022-12-07T09:04:51;95690.88;;;3.93;77.54
46456;BME280;64052;47.466;9.094;2022-12-07T09:09:53;95694.31;;;3.94;77.55
46456;BME280;64052;47.466;9.094;2022-12-07T09:14:55;95694.31;;;3.94;77.40
46456;BME280;64052;47.466;9.094;2022-12-07T10:10:17;95689.19;;;3.92;78.06
46456;BME280;64052;47.466;9.094;2022-12-07T12:42:54;95558.03;;;4.18;78.99
46456;BME280;64052;47.466;9.094;2022-12-07T12:48:00;95555.94;;;4.10;79.18
46456;BME280;64052;47.466;9.094;2022-12-07T13:03:27;95538.31;;;4.14;79.78
46456;BME280;64052;47.466;9.094;2022-12-07T13:08:30;95536.84;;;4.10;79.36
46456;BME280;64052;47.466;9.094;2022-12-07T13:13:35;95533.16;;;4.12;80.49
46456;BME280;64052;47.466;9.094;2022-12-07T13:18:38;95524.13;;;4.18;79.54
46456;BME280;64052;47.466;9.094;2022-12-07T13:28:50;95514.97;;;4.25;79.55
46456;BME280;64052;47.466;9.094;2022-12-07T13:33:52;95513.81;;;4.29;79.07
46456;BME280;64052;47.466;9.094;2022-12-07T13:38:55;95510.81;;;4.35;78.87
46456;BME280;64052;47.466;9.094;2022-12-07T13:44:05;95505.59;;;4.35;79.26
46456;BME280;64052;47.466;9.094;2022-12-07T13:49:17;95506.13;;;4.41;78.30
46456;BME280;64052;47.466;9.094;2022-12-07T13:54:20;95502.25;;;4.46;77.17
46456;BME280;64052;47.466;9.094;2022-12-07T13:59:23;95504.78;;;4.48;77.07
46456;BME280;64052;47.466;9.094;2022-12-07T14:04:37;95491.84;;;4.59;76.96
46456;BME280;64052;47.466;9.094;2022-12-07T14:09:38;95491.63;;;4.62;76.56
46456;BME280;64052;47.466;9.094;2022-12-07T14:14:47;95487.88;;;4.67;76.17
46456;BME280;64052;47.466;9.094;2022-12-07T14:19:57;95487.69;;;4.70;76.03
46456;BME280;64052;47.466;9.094;2022-12-07T14:25:22;95488.00;;;4.65;76.57
46456;BME280;64052;47.466;9.094;2022-12-07T14:30:32;95486.19;;;4.66;77.10
46456;BME280;64052;47.466;9.094;2022-12-07T14:35:37;95483.72;;;4.64;76.46
46456;BME280;64052;47.466;9.094;2022-12-07T14:40:38;95493.59;;;4.59;76.63
46456;BME280;64052;47.466;9.094;2022-12-07T14:45:40;95485.25;;;4.54;76.24
46456;BME280;64052;47.466;9.094;2022-12-07T15:30:20;95486.16;;;4.40;77.42
46456;BME280;64052;47.466;9.094;2022-12-07T15:35:22;95481.38;;;4.33;77.71
46456;BME280;64052;47.466;9.094;2022-12-07T15:40:24;95479.06;;;4.29;77.14
46456;BME280;64052;47.466;9.094;2022-12-07T15:45:25;95485.53;;;4.23;78.03
46456;BME280;64052;47.466;9.094;2022-12-07T15:50:27;95485.31;;;4.26;78.04
46456;BME280;64052;47.466;9.094;2022-12-07T16:06:24;95465.97;;;4.16;77.99
46456;BME280;64052;47.466;9.094;2022-12-07T16:22:13;95464.31;;;4.15;78.98
46456;BME280;64052;47.466;9.094;2022-12-07T16:43:47;95450.69;;;3.97;78.36
46456;BME280;64052;47.466;9.094;2022-12-07T16:53:57;95445.47;;;3.84;79.36
46456;BME280;64052;47.466;9.094;2022-12-07T17:10:14;95454.41;;;3.79;79.03
46456;BME280;64052;47.466;9.094;2022-12-07T17:15:16;95445.84;;;3.77;79.12
46456;BME280;64052;47.466;9.094;2022-12-07T17:20:18;95440.53;;;3.79;78.92
46456;BME280;64052;47.466;9.094;2022-12-07T17:25:20;95433.31;;;3.83;79.13
46456;BME280;64052;47.466;9.094;2022-12-07T17:46:37;95432.22;;;3.87;77.87
46456;BME280;64052;47.466;9.094;2022-12-07T17:51:39;95427.50;;;3.79;78.61
46456;BME280;64052;47.466;9.094;2022-12-07T18:07:49;95417.38;;;3.87;78.31
46456;BME280;64052;47.466;9.094;2022-12-07T18:12:52;95410.50;;;3.86;78.19
46456;BME280;64052;47.466;9.094;2022-12-07T18:17:55;95407.75;;;3.75;78.20
46456;BME280;64052;47.466;9.094;2022-12-07T18:22:59;95409.59;;;3.60;78.67
46456;BME280;64052;47.466;9.094;2022-12-07T18:28:04;95407.94;;;3.59;79.19
46456;BME280;64052;47.466;9.094;2022-12-07T18:33:09;95408.97;;;3.56;79.50
46456;BME280;64052;47.466;9.094;2022-12-07T18:38:14;95406.22;;;3.58;79.40
46456;BME280;64052;47.466;9.094;2022-12-07T18:43:23;95407.72;;;3.62;79.88
46456;BME280;64052;47.466;9.094;2022-12-07T18:48:26;95407.38;;;3.54;79.60
46456;BME280;64052;47.466;9.094;2022-12-07T18:53:32;95407.28;;;3.55;79.64
46456;BME280;64052;47.466;9.094;2022-12-07T18:58:34;95394.91;;;3.59;79.49
46456;BME280;64052;47.466;9.094;2022-12-07T19:03:36;95399.06;;;3.61;79.20
46456;BME280;64052;47.466;9.094;2022-12-07T19:08:37;95393.97;;;3.60;78.83
46456;BME280;64052;47.466;9.094;2022-12-07T19:13:39;95382.16;;;3.54;79.04
46456;BME280;64052;47.466;9.094;2022-12-07T19:18:41;95378.91;;;3.50;79.80
46456;BME280;64052;47.466;9.094;2022-12-07T19:23:50;95377.03;;;3.53;78.74
46456;BME280;64052;47.466;9.094;2022-12-07T19:28:51;95373.28;;;3.57;78.86
46456;BME280;64052;47.466;9.094;2022-12-07T19:33:53;95374.84;;;3.46;79.31
46456;BME280;64052;47.466;9.094;2022-12-07T19:38:54;95369.72;;;3.45;79.65
46456;BME280;64052;47.466;9.094;2022-12-07T19:43:57;95370.75;;;3.42;79.62
46456;BME280;64052;47.466;9.094;2022-12-07T19:48:59;95372.75;;;3.51;79.36
46456;BME280;64052;47.466;9.094;2022-12-07T19:54:01;95356.19;;;3.53;79.20
46456;BME280;64052;47.466;9.094;2022-12-07T19:59:03;95354.66;;;3.35;79.77
46456;BME280;64052;47.466;9.094;2022-12-07T20:04:07;95347.84;;;3.47;79.76
46456;BME280;64052;47.466;9.094;2022-12-07T20:09:12;95348.44;;;3.51;78.84
46456;BME280;64052;47.466;9.094;2022-12-07T20:14:14;95351.41;;;3.59;78.82
46456;BME280;64052;47.466;9.094;2022-12-07T20:19:22;95344.28;;;3.48;79.15
46456;BME280;64052;47.466;9.094;2022-12-07T21:05:44;95323.59;;;3.32;78.71
46456;BME280;64052;47.466;9.094;2022-12-07T21:10:55;95326.41;;;3.29;79.17
46456;BME280;64052;47.466;9.094;2022-12-07T21:16:07;95326.22;;;3.32;78.60
46456;BME280;64052;47.466;9.094;2022-12-07T21:21:15;95326.72;;;3.25;79.08
46456;BME280;64052;47.466;9.094;2022-12-07T21:26:22;95319.91;;;3.22;79.47
46456;BME280;64052;47.466;9.094;2022-12-07T21:31:25;95304.50;;;3.19;79.88
46456;BME280;64052;47.466;9.094;2022-12-07T21:36:27;95303.34;;;3.23;80.05
46456;BME280;64052;47.466;9.094;2022-12-07T21:41:31;95308.69;;;3.34;78.67
46456;BME280;64052;47.466;9.094;2022-12-07T21:46:33;95300.06;;;3.34;79.01
46456;BME280;64052;47.466;9.094;2022-12-07T21:51:36;95315.56;;;3.35;78.89
46456;BME280;64052;47.466;9.094;2022-12-07T21:56:41;95310.44;;;3.21;79.36
46456;BME280;64052;47.466;9.094;2022-12-07T22:01:43;95293.34;;;3.17;79.49
46456;BME280;64052;47.466;9.094;2022-12-07T22:06:45;95302.91;;;3.16;79.81
46456;BME280;64052;47.466;9.094;2022-12-07T22:11:48;95302.69;;;3.19;79.51
46456;BME280;64052;47.466;9.094;2022-12-07T22:16:50;95306.28;;;3.31;79.36
46456;BME280;64052;47.466;9.094;2022-12-07T22:21:52;95310.47;;;3.34;79.19
46456;BME280;64052;47.466;9.094;2022-12-07T22:26:53;95316.81;;;3.30;78.63
46456;BME280;64052;47.466;9.094;2022-12-07T22:31:55;95309.53;;;3.35;79.02
46456;BME280;64052;47.466;9.094;2022-12-07T22:36:56;95308.06;;;3.31;79.05
46456;BME280;64052;47.466;9.094;2022-12-07T22:41:58;95291.56;;;3.17;80.18
46456;BME280;64052;47.466;9.094;2022-12-07T22:46:59;95278.81;;;3.13;80.01
46456;BME280;64052;47.466;9.094;2022-12-07T22:52:01;95281.97;;;3.18;79.81
46456;BME280;64052;47.466;9.094;2022-12-07T22:57:02;95278.28;;;3.35;79.27
46456;BME280;64052;47.466;9.094;2022-12-07T23:02:04;95284.44;;;3.47;78.22
46456;BME280;64052;47.466;9.094;2022-12-07T23:07:05;95264.50;;;3.33;78.39
46456;BME280;64052;47.466;9.094;2022-12-07T23:12:08;95271.50;;;3.32;78.46
46456;BME280;64052;47.466;9.094;2022-12-07T23:17:09;95272.50;;;3.30;78.40
46456;BME280;64052;47.466;9.094;2022-12-07T23:22:11;95270.84;;;3.29;78.61
46456;BME280;64052;47.466;9.094;2022-12-07T23:27:13;95262.31;;;3.27;78.66
46456;BME280;64052;47.466;9.094;2022-12-07T23:32:14;95257.19;;;3.25;79.03
46456;BME280;64052;47.466;9.094;2022-12-07T23:37:16;95254.56;;;3.25;78.77
46456;BME280;64052;47.466;9.094;2022-12-07T23:42:17;95250.00;;;3.29;78.84
46456;BME280;64052;47.466;9.094;2022-12-07T23:47:19;95252.69;;;3.27;78.88
46456;BME280;64052;47.466;9.094;2022-12-07T23:52:20;95233.84;;;3.36;78.51
46456;BME280;64052;47.466;9.094;2022-12-07T23:57:22;95236.28;;;3.40;78.47
